UDSG

Details ICAO UDSG (LWN)
Name Shirak
Region Armenia
Timezone Asia/Yerevan (UTC+4.0)
Plans Departing 78
Arriving 101
Stats Elevation 5,000 ft / 1,524 m (AMSL)
Location 40.750500° 43.859300°
Runways 1
Magnetic Variation 6.660° E
Sunrise 2021-09-18 02:49:18 UTC / 2021-09-18 06:49:18 Local
Sunset 2021-09-18 15:10:57 UTC / 2021-09-18 19:10:57 Local
Advertisement - Login to hide

Runways

ID Width Length Bearing (true/mag) Surface Threshold Overrun Markings Lighting
02 147 ft / 45 m 10,532 ft / 3,210 m 23.45° / 16.79° ASPHALT 0 ft / 0 m 118 ft / 36 m PREC-APP EDGE THRESHOLD MALSR TDZ
20 147 ft / 45 m 10,532 ft / 3,210 m 203.46° / 196.80° ASPHALT 0 ft / 0 m 118 ft / 36 m PREC-APP EDGE THRESHOLD

Map

Weather


0- 5 10 15 20 25 30 35+ Temperature / °C

Clouds and Precipitation
Forecast for 2021-09-18 12:00 UTC. Updated 5 hours ago

Ground ~20,000 ft ~40,000 ft Winds

METAR

UDSG 181330Z 22004KT 9999 FEW049CB 23/02 Q1016 RMK R02/CLRD70 NOSIG

TAF

TAF UDSG 181104Z 1812/1912 04006KT 9999 FEW050 TEMPO 1812/1821 VRB16G26KT FEW040CB

Frequencies

Approach 129.70 MHz Shirak Approach
Tower 127.70 MHz Shirak Tower
Recorded 128.70 MHz Shirak ATIS
Warning: Do not use this data for real-world aviation or navigation. No guarantee of current accuracy is given.